Time;durP1;ratioP1;P1;durP2;ratioP2;P2;SDS_P1;SDS_P2;PMS_P1;PMS_P2;Temp;Humidity;BMP_temperature;BMP_pressure;BME280_temperature;BME280_humidity;BME280_pressure;Samples;Min_cycle;Max_cycle;Signal;HPM_P1;HPM_P2
2023/05/03 00:01:10;;;;;;;9.38;3.72;;;4.10;99.90;;;;;;5066756;28;20038;-69
2023/05/03 00:03:36;;;;;;;8.57;3.35;;;4.10;99.90;;;;;;5104340;27;20521;-69
2023/05/03 00:06:13;;;;;;;3.75;2.70;;;4.00;99.90;;;;;;5068478;28;20044;-69
2023/05/03 00:08:39;;;;;;;8.10;2.70;;;4.00;99.90;;;;;;5067278;28;20052;-70
2023/05/03 00:11:05;;;;;;;5.40;2.50;;;4.00;99.90;;;;;;5069044;28;20058;-69
2023/05/03 00:13:31;;;;;;;7.75;3.08;;;4.00;99.90;;;;;;5066378;28;20044;-70
2023/05/03 00:15:57;;;;;;;7.22;4.18;;;4.10;99.90;;;;;;5087130;28;20029;-69
2023/05/03 00:18:22;;;;;;;6.07;3.20;;;4.10;99.90;;;;;;5068608;28;20032;-69
2023/05/03 00:20:50;;;;;;;5.45;2.78;;;4.10;99.90;;;;;;5052815;28;20371;-69
2023/05/03 00:23:15;;;;;;;6.68;3.28;;;4.10;99.90;;;;;;5068314;28;20036;-69
2023/05/03 00:25:44;;;;;;;9.73;4.13;;;4.20;99.90;;;;;;5073333;28;20052;-70
2023/05/03 00:28:10;;;;;;;5.75;3.47;;;4.30;99.90;;;;;;5084424;28;20127;-69
2023/05/03 00:30:35;;;;;;;7.53;4.15;;;4.30;99.90;;;;;;5066006;28;20606;-71
2023/05/03 00:33:01;;;;;;;7.65;3.88;;;4.30;99.90;;;;;;5084584;28;20053;-71
2023/05/03 00:35:27;;;;;;;6.95;3.35;;;4.30;99.90;;;;;;5066989;28;20048;-71
2023/05/03 00:37:53;;;;;;;7.10;3.28;;;4.30;99.90;;;;;;5087895;28;20054;-71
2023/05/03 00:40:21;;;;;;;6.82;3.47;;;4.30;99.90;;;;;;5084602;28;20055;-70
2023/05/03 00:42:47;;;;;;;7.10;4.07;;;4.30;99.90;;;;;;5082924;28;20048;-71
2023/05/03 00:45:13;;;;;;;9.93;4.65;;;4.30;99.90;;;;;;5052369;28;20156;-70
2023/05/03 00:47:39;;;;;;;9.05;3.92;;;4.30;99.90;;;;;;5060827;28;20482;-70
2023/05/03 00:50:06;;;;;;;7.10;3.67;;;4.30;99.90;;;;;;5072220;28;20147;-69
2023/05/03 00:52:33;;;;;;;7.35;3.70;;;4.40;99.90;;;;;;5070483;28;20486;-69
2023/05/03 00:54:59;;;;;;;6.68;4.05;;;4.40;99.90;;;;;;5052675;28;20105;-70
2023/05/03 00:57:27;;;;;;;7.13;4.03;;;4.50;99.90;;;;;;5065328;28;20416;-70
2023/05/03 00:59:53;;;;;;;5.63;3.30;;;4.50;99.90;;;;;;5051409;28;20040;-71
2023/05/03 01:02:18;;;;;;;6.82;3.70;;;4.60;99.90;;;;;;5088020;28;20040;-71
2023/05/03 01:04:44;;;;;;;6.07;3.55;;;4.60;99.90;;;;;;5063335;28;20048;-71
2023/05/03 01:07:27;;;;;;;8.48;4.28;;;4.70;99.90;;;;;;5088513;28;20063;-71
2023/05/03 01:09:56;;;;;;;7.85;3.90;;;4.60;99.90;;;;;;5081535;28;20044;-71
2023/05/03 01:12:45;;;;;;;7.85;4.43;;;4.70;99.90;;;;;;5066285;28;20402;-71
2023/05/03 01:15:40;;;;;;;7.72;4.88;;;4.70;99.90;;;;;;5057158;28;20436;-70
2023/05/03 01:18:17;;;;;;;6.53;4.72;;;4.80;99.90;;;;;;5085139;28;20044;-71
2023/05/03 01:20:50;;;;;;;6.00;4.07;;;4.80;99.90;;;;;;5083949;28;20054;-71
2023/05/03 01:23:35;;;;;;;7.30;4.13;;;4.80;99.90;;;;;;5073064;28;20475;-71
2023/05/03 01:26:15;;;;;;;8.48;4.70;;;4.90;99.90;;;;;;5071901;28;20087;-71
2023/05/03 01:28:41;;;;;;;7.05;4.00;;;4.90;99.90;;;;;;5082008;28;20087;-73
2023/05/03 01:31:07;;;;;;;6.88;4.30;;;4.90;99.90;;;;;;5084977;28;20134;-71
2023/05/03 01:33:43;;;;;;;7.22;4.22;;;5.00;99.90;;;;;;5083591;28;20052;-71
2023/05/03 01:36:29;;;;;;;7.25;4.35;;;5.00;99.90;;;;;;5085356;28;20044;-71
2023/05/03 01:39:09;;;;;;;6.68;3.60;;;5.10;99.90;;;;;;5071243;28;20044;-71
2023/05/03 01:41:39;;;;;;;8.40;4.68;;;5.10;99.90;;;;;;5085771;28;20123;-71
2023/05/03 01:44:06;;;;;;;6.78;3.72;;;5.10;99.90;;;;;;5085005;28;20048;-71
2023/05/03 01:46:32;;;;;;;6.68;4.00;;;5.10;99.90;;;;;;5066879;28;21108;-70
2023/05/03 01:48:58;;;;;;;10.40;4.38;;;5.10;99.90;;;;;;5048745;28;20127;-70
2023/05/03 01:51:27;;;;;;;6.95;4.00;;;5.10;99.90;;;;;;5061457;28;20122;-70
2023/05/03 01:53:52;;;;;;;7.65;4.38;;;5.10;99.90;;;;;;5050252;28;20048;-70
2023/05/03 01:56:18;;;;;;;8.38;4.65;;;5.10;99.90;;;;;;5063730;28;20607;-70
2023/05/03 01:58:44;;;;;;;8.68;4.20;;;5.10;99.90;;;;;;5081185;28;20520;-70
2023/05/03 02:01:10;;;;;;;7.43;4.43;;;5.10;99.90;;;;;;5065451;28;20040;-71
2023/05/03 02:03:35;;;;;;;7.53;5.47;;;5.10;99.90;;;;;;5081192;28;20040;-71
2023/05/03 02:06:01;;;;;;;6.07;4.30;;;5.10;99.90;;;;;;5080777;28;20032;-71
2023/05/03 02:08:27;;;;;;;6.35;4.38;;;5.10;99.90;;;;;;5051614;28;20036;-71
2023/05/03 02:10:52;;;;;;;10.18;5.38;;;5.00;99.90;;;;;;5080792;28;20062;-71
2023/05/03 02:13:21;;;;;;;5.90;4.07;;;5.00;99.90;;;;;;5050003;28;20044;-70
2023/05/03 02:15:47;;;;;;;8.73;5.22;;;5.00;99.90;;;;;;5082402;28;20181;-70
2023/05/03 02:18:15;;;;;;;7.90;5.07;;;5.00;99.90;;;;;;5083665;28;20458;-70
2023/05/03 02:20:44;;;;;;;8.57;5.00;;;4.90;99.90;;;;;;5086166;28;20048;-70
2023/05/03 02:23:10;;;;;;;6.20;4.00;;;4.90;99.90;;;;;;5084372;28;20044;-70
2023/05/03 02:25:36;;;;;;;9.25;4.82;;;4.80;99.90;;;;;;5083437;28;20818;-70
2023/05/03 02:28:02;;;;;;;7.07;4.50;;;4.80;99.90;;;;;;5065240;28;20058;-70
2023/05/03 02:30:28;;;;;;;6.50;4.40;;;4.80;99.90;;;;;;5085572;28;20115;-71
2023/05/03 02:32:54;;;;;;;8.73;5.57;;;4.80;99.90;;;;;;5085415;28;20047;-71
2023/05/03 02:35:20;;;;;;;7.32;4.63;;;4.80;99.90;;;;;;5083798;28;20036;-71
2023/05/03 02:37:45;;;;;;;8.93;4.60;;;4.70;99.90;;;;;;5049088;28;20113;-71
2023/05/03 02:40:11;;;;;;;6.60;4.55;;;4.70;99.90;;;;;;5064049;28;20040;-70
2023/05/03 02:42:38;;;;;;;7.60;4.53;;;4.70;99.90;;;;;;5085322;28;20048;-71
2023/05/03 02:45:04;;;;;;;7.25;4.30;;;4.60;99.90;;;;;;5082179;28;20055;-70
2023/05/03 02:47:30;;;;;;;5.88;4.43;;;4.60;99.90;;;;;;5081584;28;20116;-71
2023/05/03 02:49:56;;;;;;;6.88;4.43;;;4.50;99.90;;;;;;5062439;28;20162;-71
2023/05/03 02:52:22;;;;;;;8.57;4.45;;;4.50;99.90;;;;;;5049100;28;20105;-70
2023/05/03 02:54:48;;;;;;;10.00;5.90;;;4.50;99.90;;;;;;5084340;28;20143;-70
2023/05/03 02:57:14;;;;;;;7.15;3.75;;;4.40;99.90;;;;;;5052254;28;20206;-69
2023/05/03 02:59:40;;;;;;;6.72;4.22;;;4.30;99.90;;;;;;5047827;28;20078;-70
2023/05/03 03:02:06;;;;;;;6.57;4.07;;;4.20;99.90;;;;;;5049391;28;20091;-70
2023/05/03 03:04:31;;;;;;;7.03;4.30;;;4.20;99.90;;;;;;5084081;28;20666;-71
2023/05/03 03:06:57;;;;;;;8.07;4.95;;;4.20;99.90;;;;;;5049575;28;20048;-70
2023/05/03 03:09:23;;;;;;;6.75;4.32;;;4.20;99.90;;;;;;5081397;28;20044;-71
2023/05/03 03:11:52;;;;;;;7.57;4.25;;;4.10;99.90;;;;;;5079967;28;20048;-71
2023/05/03 03:14:21;;;;;;;5.75;4.53;;;4.10;99.90;;;;;;5066483;28;20036;-70
2023/05/03 03:16:51;;;;;;;7.78;4.20;;;4.00;99.90;;;;;;5067368;28;20048;-70
2023/05/03 03:19:17;;;;;;;10.18;4.80;;;4.00;99.90;;;;;;5084547;28;20071;-71
2023/05/03 03:21:42;;;;;;;6.95;4.35;;;4.00;99.90;;;;;;5086282;28;20137;-71
2023/05/03 03:24:08;;;;;;;6.57;4.82;;;4.00;99.90;;;;;;5068149;28;20044;-70
2023/05/03 03:26:34;;;;;;;5.68;4.40;;;3.90;99.90;;;;;;5065897;28;20051;-71
2023/05/03 03:29:00;;;;;;;7.68;4.88;;;3.90;99.90;;;;;;5082424;28;20064;-71
2023/05/03 03:31:26;;;;;;;8.40;5.28;;;3.90;99.90;;;;;;5083740;28;20046;-72
2023/05/03 03:33:52;;;;;;;6.95;5.47;;;3.80;99.90;;;;;;5070049;28;20545;-70
2023/05/03 03:36:18;;;;;;;10.75;5.90;;;3.80;99.90;;;;;;5083822;28;20486;-73
2023/05/03 03:38:43;;;;;;;9.80;5.72;;;3.60;99.90;;;;;;5068628;28;20055;-70
2023/05/03 03:41:09;;;;;;;8.30;5.97;;;3.50;99.90;;;;;;5067522;28;20425;-71
2023/05/03 03:43:35;;;;;;;9.35;6.53;;;3.60;99.90;;;;;;5090346;28;20131;-69
2023/05/03 03:46:01;;;;;;;8.40;5.15;;;3.50;99.90;;;;;;5088179;28;20070;-69
2023/05/03 03:48:27;;;;;;;7.43;5.10;;;3.40;99.90;;;;;;5068908;28;20502;-69
2023/05/03 03:50:56;;;;;;;7.53;4.95;;;3.30;99.90;;;;;;5052230;28;20398;-69
2023/05/03 03:53:22;;;;;;;6.28;4.25;;;3.30;99.90;;;;;;5067026;28;20051;-70
2023/05/03 03:55:48;;;;;;;15.43;8.63;;;3.30;99.90;;;;;;5051052;28;20045;-70
2023/05/03 03:58:14;;;;;;;10.38;8.48;;;3.20;99.90;;;;;;5088761;28;20180;-70
2023/05/03 04:00:40;;;;;;;10.27;7.22;;;3.20;99.90;;;;;;5082642;28;20076;-70
2023/05/03 04:03:06;;;;;;;10.02;8.45;;;3.20;99.90;;;;;;5096624;27;20150;-71
2023/05/03 04:05:32;;;;;;;10.77;7.82;;;3.10;99.90;;;;;;5057328;28;20055;-70
2023/05/03 04:07:57;;;;;;;7.30;5.53;;;3.10;99.90;;;;;;5090163;28;20052;-71
2023/05/03 04:10:26;;;;;;;7.35;5.45;;;3.10;99.90;;;;;;5109512;27;20398;-71
2023/05/03 04:12:52;;;;;;;8.23;5.60;;;3.10;99.90;;;;;;5090900;28;20058;-70
2023/05/03 04:15:18;;;;;;;5.78;5.18;;;3.10;99.90;;;;;;5087963;28;20043;-71
2023/05/03 04:17:44;;;;;;;6.45;4.75;;;3.10;99.90;;;;;;5087086;28;20056;-69
2023/05/03 04:20:12;;;;;;;7.57;5.65;;;3.10;99.90;;;;;;5069868;28;20616;-71
2023/05/03 04:22:39;;;;;;;13.52;8.80;;;3.20;99.90;;;;;;5091098;28;20088;-71
2023/05/03 04:25:07;;;;;;;8.27;6.32;;;3.20;99.90;;;;;;5087264;28;20115;-71
2023/05/03 04:27:33;;;;;;;13.10;9.10;;;3.20;99.90;;;;;;5080460;28;20093;-72
2023/05/03 04:29:59;;;;;;;17.30;11.90;;;3.20;99.90;;;;;;5075740;28;20111;-72
2023/05/03 04:32:25;;;;;;;15.48;9.13;;;3.20;99.90;;;;;;5082592;28;20439;-72
2023/05/03 04:34:53;;;;;;;6.30;5.65;;;3.20;99.90;;;;;;5089394;28;20044;-72
2023/05/03 04:37:22;;;;;;;13.95;10.02;;;3.20;99.90;;;;;;5087467;28;20071;-72
2023/05/03 04:39:48;;;;;;;9.43;6.05;;;3.20;99.90;;;;;;5085441;28;20052;-72
2023/05/03 04:42:14;;;;;;;11.80;7.97;;;3.30;99.90;;;;;;5066315;28;20044;-72
2023/05/03 04:44:43;;;;;;;9.93;6.85;;;3.40;99.90;;;;;;5082617;28;20044;-73
2023/05/03 04:47:09;;;;;;;14.38;9.98;;;3.40;99.90;;;;;;5069896;28;20505;-72
2023/05/03 04:49:36;;;;;;;14.50;10.52;;;3.40;99.90;;;;;;5082179;28;20084;-72
2023/05/03 04:52:02;;;;;;;13.15;10.15;;;3.50;99.90;;;;;;5083173;28;20047;-72
2023/05/03 04:54:28;;;;;;;8.20;7.25;;;3.60;99.90;;;;;;5066248;28;20040;-72
2023/05/03 04:56:57;;;;;;;8.75;7.70;;;3.60;99.90;;;;;;5066743;28;20040;-73
2023/05/03 04:59:22;;;;;;;9.68;7.75;;;3.70;99.90;;;;;;5066042;28;20052;-72
2023/05/03 05:01:48;;;;;;;11.15;8.02;;;3.70;99.90;;;;;;5073260;28;20392;-72
2023/05/03 05:04:14;;;;;;;15.20;10.60;;;3.80;99.90;;;;;;5087550;28;20096;-73
2023/05/03 05:06:40;;;;;;;14.18;10.93;;;3.90;99.90;;;;;;5089560;28;20092;-71
2023/05/03 05:09:06;;;;;;;13.20;8.85;;;4.00;99.90;;;;;;5077978;28;20047;-70
2023/05/03 05:11:32;;;;;;;14.80;11.15;;;4.10;99.90;;;;;;5074395;28;20036;-71
2023/05/03 05:13:58;;;;;;;9.40;8.13;;;4.10;99.90;;;;;;5072379;28;20112;-71
2023/05/03 05:16:24;;;;;;;9.45;8.43;;;4.20;99.90;;;;;;5104289;27;20616;-71
2023/05/03 05:18:50;;;;;;;10.90;9.73;;;4.20;99.90;;;;;;5080332;28;20495;-71
2023/05/03 05:21:15;;;;;;;10.30;8.52;;;4.30;99.90;;;;;;5088669;28;20070;-71
2023/05/03 05:23:41;;;;;;;9.80;8.05;;;4.40;99.90;;;;;;5093563;28;20132;-69
2023/05/03 05:26:07;;;;;;;12.07;8.45;;;4.50;99.90;;;;;;5073532;28;20083;-70
2023/05/03 05:28:33;;;;;;;11.40;9.30;;;4.60;99.90;;;;;;5071944;28;20036;-70
2023/05/03 05:30:58;;;;;;;14.30;12.13;;;4.70;99.90;;;;;;5094604;28;20064;-70
2023/05/03 05:33:24;;;;;;;25.17;18.42;;;4.80;99.90;;;;;;5083268;28;20046;-70
2023/05/03 05:35:50;;;;;;;22.77;17.92;;;4.80;99.90;;;;;;5089307;28;20060;-70
2023/05/03 05:38:16;;;;;;;16.45;12.85;;;5.00;99.90;;;;;;5073061;28;20051;-71
2023/05/03 05:40:42;;;;;;;11.80;8.60;;;5.10;99.90;;;;;;5086653;28;20297;-69
2023/05/03 05:43:08;;;;;;;11.13;7.53;;;5.10;99.90;;;;;;5083777;28;20036;-70
2023/05/03 05:45:34;;;;;;;8.52;6.55;;;5.20;99.90;;;;;;5088089;28;20043;-70
2023/05/03 05:48:00;;;;;;;9.18;6.05;;;5.40;99.90;;;;;;5047500;28;20040;-71
2023/05/03 05:50:26;;;;;;;6.95;5.68;;;5.50;99.90;;;;;;5065483;28;20071;-70
2023/05/03 05:52:56;;;;;;;10.88;6.30;;;5.60;99.90;;;;;;5080613;28;20044;-70
2023/05/03 05:55:22;;;;;;;9.70;6.63;;;5.80;99.90;;;;;;5064715;28;20271;-70
2023/05/03 05:57:47;;;;;;;8.32;6.45;;;5.90;99.90;;;;;;5080937;28;20079;-70
2023/05/03 06:00:14;;;;;;;10.10;5.95;;;6.00;99.90;;;;;;5078581;28;20180;-70
2023/05/03 06:02:43;;;;;;;6.50;5.10;;;6.20;99.90;;;;;;5056045;28;20509;-70
2023/05/03 06:05:10;;;;;;;7.60;4.80;;;6.30;99.90;;;;;;5052838;28;20046;-70
2023/05/03 06:07:36;;;;;;;7.68;4.95;;;6.30;99.90;;;;;;5090074;28;20039;-71
2023/05/03 06:10:03;;;;;;;5.75;4.20;;;6.50;99.90;;;;;;5062227;28;20119;-71
2023/05/03 06:12:29;;;;;;;5.95;4.07;;;6.60;99.90;;;;;;5086232;28;20036;-72
2023/05/03 06:14:58;;;;;;;6.75;3.70;;;6.70;99.90;;;;;;5085400;28;20055;-72
2023/05/03 06:17:27;;;;;;;5.68;3.47;;;6.70;99.90;;;;;;5063374;28;20188;-70
2023/05/03 06:19:53;;;;;;;8.07;3.80;;;6.90;99.90;;;;;;5099766;28;20047;-70
2023/05/03 06:22:19;;;;;;;5.65;3.05;;;7.00;99.90;;;;;;5051205;28;20036;-70
2023/05/03 06:24:45;;;;;;;5.50;3.28;;;7.10;99.90;;;;;;5083096;28;20337;-74
2023/05/03 06:27:10;;;;;;;5.32;3.03;;;7.20;99.90;;;;;;5088992;28;20394;-73
2023/05/03 06:29:36;;;;;;;4.80;2.00;;;7.30;99.90;;;;;;5074798;28;20483;-73
2023/05/03 06:32:03;;;;;;;5.35;2.83;;;7.40;99.90;;;;;;5063140;28;20059;-73
2023/05/03 06:34:29;;;;;;;5.88;3.13;;;7.50;99.90;;;;;;5081996;28;20506;-73
2023/05/03 06:36:55;;;;;;;7.00;2.40;;;7.60;99.90;;;;;;5067942;28;20063;-73
2023/05/03 06:39:20;;;;;;;4.55;2.45;;;7.70;99.90;;;;;;5063863;28;20040;-72
2023/05/03 06:41:46;;;;;;;3.25;2.00;;;7.70;99.90;;;;;;5066182;28;20071;-73
2023/05/03 06:44:12;;;;;;;5.63;2.20;;;7.80;99.90;;;;;;5065631;28;20138;-72
2023/05/03 06:46:38;;;;;;;3.67;2.33;;;7.80;99.90;;;;;;5064363;28;20079;-73
2023/05/03 06:49:04;;;;;;;5.05;2.10;;;7.80;99.90;;;;;;5049128;28;20086;-74
2023/05/03 06:51:31;;;;;;;4.30;1.85;;;7.90;99.90;;;;;;5083859;28;20122;-73
2023/05/03 06:54:05;;;;;;;7.25;2.22;;;8.10;99.90;;;;;;5085838;28;20043;-73
2023/05/03 06:56:35;;;;;;;6.22;1.92;;;8.10;99.90;;;;;;5088239;28;20646;-74
2023/05/03 06:59:02;;;;;;;2.92;1.55;;;8.20;99.90;;;;;;5084230;28;20043;-73
2023/05/03 07:01:28;;;;;;;4.90;1.40;;;8.30;99.90;;;;;;5068293;28;20529;-73
2023/05/03 07:03:54;;;;;;;3.08;1.27;;;8.30;99.90;;;;;;5069592;28;20052;-73
2023/05/03 07:06:22;;;;;;;4.53;1.90;;;8.40;99.90;;;;;;5069677;28;20043;-73
2023/05/03 07:08:52;;;;;;;5.35;1.80;;;8.40;99.90;;;;;;5088707;28;20040;-74
2023/05/03 07:11:21;;;;;;;3.85;1.45;;;8.50;99.90;;;;;;5066922;28;20047;-73
2023/05/03 07:13:47;;;;;;;4.47;1.33;;;8.60;99.90;;;;;;5066196;28;20113;-73
2023/05/03 07:16:12;;;;;;;3.10;1.20;;;8.60;99.90;;;;;;5068497;28;20056;-73
2023/05/03 07:18:38;;;;;;;2.53;1.10;;;8.70;99.90;;;;;;5036399;28;20056;-74
2023/05/03 07:21:05;;;;;;;4.65;1.10;;;8.80;99.90;;;;;;5067934;28;20452;-73
2023/05/03 07:23:31;;;;;;;3.42;0.88;;;8.80;99.90;;;;;;5052537;28;20044;-73
2023/05/03 07:25:58;;;;;;;2.85;1.10;;;8.80;99.90;;;;;;5067846;28;20039;-73
2023/05/03 07:28:26;;;;;;;2.88;0.90;;;8.80;99.90;;;;;;5085446;28;20383;-73
2023/05/03 07:30:52;;;;;;;3.95;1.30;;;8.80;99.90;;;;;;5053421;28;20086;-73
2023/05/03 07:33:18;;;;;;;3.50;1.10;;;8.90;99.90;;;;;;5055161;28;20142;-74
2023/05/03 07:35:47;;;;;;;3.72;1.60;;;8.90;99.90;;;;;;5064250;28;20318;-73
2023/05/03 07:38:13;;;;;;;4.13;1.20;;;8.90;99.90;;;;;;5064535;28;20055;-71
2023/05/03 07:40:40;;;;;;;4.18;1.45;;;8.90;99.90;;;;;;5053529;28;20048;-71
2023/05/03 07:43:08;;;;;;;3.78;0.95;;;9.00;99.90;;;;;;5082912;28;20040;-70
2023/05/03 07:45:35;;;;;;;3.63;1.25;;;9.10;99.90;;;;;;5062157;28;20121;-71
2023/05/03 07:48:02;;;;;;;4.55;1.23;;;9.20;99.90;;;;;;5073545;28;20147;-72
2023/05/03 07:50:29;;;;;;;4.20;1.15;;;9.20;99.90;;;;;;5056947;28;20048;-71
2023/05/03 07:52:55;;;;;;;3.63;1.10;;;9.40;99.90;;;;;;5098489;27;20091;-72
2023/05/03 07:55:25;;;;;;;5.30;1.35;;;9.40;99.90;;;;;;5075573;28;20066;-71
2023/05/03 07:57:52;;;;;;;2.42;0.95;;;9.40;99.90;;;;;;5049356;28;20076;-71
2023/05/03 08:00:17;;;;;;;1.80;0.98;;;9.40;99.90;;;;;;5081873;28;20505;-73
2023/05/03 08:02:43;;;;;;;3.58;1.10;;;9.50;99.90;;;;;;5048327;28;20134;-72
2023/05/03 08:05:13;;;;;;;4.72;1.58;;;9.50;99.90;;;;;;5084972;28;20043;-72
2023/05/03 08:07:39;;;;;;;5.30;1.53;;;9.70;99.90;;;;;;5085103;28;20197;-71
2023/05/03 08:10:05;;;;;;;5.32;1.50;;;9.90;99.90;;;;;;5066880;28;20336;-71
2023/05/03 08:12:31;;;;;;;5.10;2.08;;;10.00;99.90;;;;;;5084134;28;20483;-71
2023/05/03 08:14:58;;;;;;;2.97;1.42;;;9.90;99.90;;;;;;5087826;28;20145;-70
2023/05/03 08:17:26;;;;;;;4.70;1.60;;;9.90;99.90;;;;;;5086496;28;20093;-71
2023/05/03 08:19:55;;;;;;;4.97;1.42;;;9.80;97.90;;;;;;5087572;28;20044;-70
2023/05/03 08:22:21;;;;;;;4.20;1.55;;;9.70;97.90;;;;;;5074022;28;20040;-70
2023/05/03 08:24:46;;;;;;;4.90;1.55;;;9.60;98.40;;;;;;5094008;28;20062;-71
2023/05/03 08:27:12;;;;;;;2.60;1.13;;;9.60;99.60;;;;;;5095125;28;20055;-70
2023/05/03 08:29:38;;;;;;;5.03;1.48;;;9.70;99.70;;;;;;5040072;28;20102;-70
2023/05/03 08:32:04;;;;;;;4.72;1.50;;;9.70;99.30;;;;;;5070488;28;20052;-70
2023/05/03 08:34:31;;;;;;;3.90;1.60;;;9.70;99.40;;;;;;5081188;28;20123;-70
2023/05/03 08:36:58;;;;;;;4.28;1.88;;;9.90;99.70;;;;;;5057503;28;20173;-70
2023/05/03 08:39:29;;;;;;;3.38;1.58;;;9.90;99.70;;;;;;5078790;28;20044;-70
2023/05/03 08:41:55;;;;;;;4.38;1.75;;;9.90;99.50;;;;;;5084756;28;20052;-70
2023/05/03 08:44:22;;;;;;;5.25;1.58;;;10.00;99.50;;;;;;5080956;28;20111;-70
2023/05/03 08:46:51;;;;;;;4.55;1.63;;;10.00;98.40;;;;;;5077960;28;20056;-71
2023/05/03 08:49:17;;;;;;;3.40;1.55;;;10.00;98.10;;;;;;5071242;28;20505;-70
2023/05/03 08:51:48;;;;;;;3.85;1.77;;;10.00;98.30;;;;;;5082107;28;20394;-69
2023/05/03 08:54:19;;;;;;;4.03;1.88;;;10.00;98.30;;;;;;5065202;28;20224;-70
2023/05/03 08:56:46;;;;;;;3.22;1.60;;;10.00;98.10;;;;;;5078899;28;20092;-70
2023/05/03 08:59:13;;;;;;;4.13;1.98;;;10.10;97.40;;;;;;5071507;28;20082;-70
2023/05/03 09:01:40;;;;;;;6.45;2.08;;;10.10;97.50;;;;;;5066550;28;20104;-70
2023/05/03 09:04:07;;;;;;;3.30;2.00;;;10.10;97.70;;;;;;5074031;28;20135;-70
2023/05/03 09:06:33;;;;;;;4.18;1.77;;;10.30;98.60;;;;;;5091245;28;20122;-70
2023/05/03 09:09:00;;;;;;;4.25;1.88;;;10.60;97.30;;;;;;5066111;28;20506;-70
2023/05/03 09:11:28;;;;;;;3.55;1.42;;;10.70;95.70;;;;;;5087123;28;20523;-70
2023/05/03 09:14:16;;;;;;;3.22;1.80;;;10.60;94.80;;;;;;5080521;28;20078;-70
2023/05/03 09:16:45;;;;;;;4.32;1.90;;;10.70;95.30;;;;;;5075245;28;20150;-71
2023/05/03 09:19:12;;;;;;;4.30;1.55;;;10.80;95.70;;;;;;5079381;28;20054;-71
2023/05/03 09:21:42;;;;;;;4.03;1.42;;;10.90;93.60;;;;;;5086762;28;20078;-70
2023/05/03 09:24:19;;;;;;;4.70;1.70;;;10.90;92.70;;;;;;5091643;28;20235;-70
2023/05/03 09:26:47;;;;;;;4.22;1.80;;;10.80;93.60;;;;;;5065202;28;20091;-70
2023/05/03 09:29:36;;;;;;;5.38;1.77;;;10.80;94.30;;;;;;5073888;28;20055;-71
2023/05/03 09:32:06;;;;;;;4.22;1.85;;;10.90;93.50;;;;;;5037919;28;20126;-70
2023/05/03 09:34:32;;;;;;;3.63;2.00;;;10.90;93.60;;;;;;5082829;28;20390;-70
2023/05/03 09:36:58;;;;;;;7.95;2.38;;;10.80;93.20;;;;;;5080881;28;20402;-69
2023/05/03 09:39:24;;;;;;;4.00;2.00;;;10.70;93.60;;;;;;5059943;28;20040;-70
2023/05/03 09:41:50;;;;;;;4.55;2.40;;;10.80;94.10;;;;;;5062005;28;20157;-70
2023/05/03 09:44:16;;;;;;;4.20;2.00;;;10.70;93.50;;;;;;5064500;28;20040;-70
2023/05/03 09:47:04;;;;;;;3.85;1.95;;;10.70;93.50;;;;;;5086711;28;20066;-69
2023/05/03 09:49:37;;;;;;;3.78;1.75;;;10.90;94.90;;;;;;5044479;28;20035;-70
2023/05/03 09:52:05;;;;;;;6.25;2.78;;;11.20;94.60;;;;;;5062940;28;20158;-70
2023/05/03 09:54:31;;;;;;;6.55;2.22;;;11.40;92.30;;;;;;5077901;28;20032;-70
2023/05/03 09:56:56;;;;;;;4.18;2.60;;;11.40;92.50;;;;;;5080057;28;20052;-70
2023/05/03 09:59:23;;;;;;;4.25;2.33;;;11.50;91.60;;;;;;5089218;28;20401;-69
2023/05/03 10:01:55;;;;;;;3.17;1.90;;;11.50;90.50;;;;;;5062710;28;20254;-70
2023/05/03 10:04:24;;;;;;;4.53;2.30;;;11.50;90.80;;;;;;5089298;28;20397;-71
2023/05/03 10:06:52;;;;;;;5.60;2.65;;;11.50;91.30;;;;;;5069958;28;20055;-71
2023/05/03 10:09:25;;;;;;;5.43;2.10;;;11.50;90.90;;;;;;5084376;28;20443;-71
2023/05/03 10:12:00;;;;;;;3.60;2.35;;;11.50;90.80;;;;;;5072945;28;20055;-71
2023/05/03 10:14:26;;;;;;;6.85;2.25;;;11.40;91.30;;;;;;5073490;28;20044;-72
2023/05/03 10:16:59;;;;;;;5.70;2.70;;;11.40;90.90;;;;;;5081889;28;20103;-72
2023/05/03 10:19:28;;;;;;;5.68;2.42;;;11.30;91.60;;;;;;5082113;28;20047;-71
2023/05/03 10:22:07;;;;;;;3.72;2.30;;;11.20;91.10;;;;;;5071125;28;20043;-71
2023/05/03 10:24:34;;;;;;;6.25;2.78;;;11.10;90.60;;;;;;5081899;28;20044;-71
2023/05/03 10:27:00;;;;;;;5.07;2.47;;;11.10;91.50;;;;;;5103329;28;20522;-71
2023/05/03 10:29:44;;;;;;;4.22;2.40;;;11.30;93.90;;;;;;5084178;28;20040;-71
2023/05/03 10:32:33;;;;;;;4.47;2.53;;;11.80;93.00;;;;;;5089236;28;20048;-71
2023/05/03 10:35:05;;;;;;;4.50;2.13;;;11.90;89.60;;;;;;5082162;28;20087;-71
2023/05/03 10:37:33;;;;;;;4.47;2.40;;;11.80;90.80;;;;;;5079830;28;20294;-70
2023/05/03 10:40:10;;;;;;;6.30;2.33;;;11.80;90.20;;;;;;5069846;28;20045;-69
2023/05/03 10:42:37;;;;;;;4.72;2.30;;;11.90;90.80;;;;;;5072614;28;20036;-70
2023/05/03 10:45:06;;;;;;;5.00;2.30;;;11.90;88.80;;;;;;5086851;28;20699;-71
2023/05/03 10:47:32;;;;;;;6.50;2.60;;;12.00;87.70;;;;;;5073437;28;20607;-70
2023/05/03 10:50:16;;;;;;;5.55;2.72;;;12.00;87.90;;;;;;5075948;28;20048;-71
2023/05/03 10:52:42;;;;;;;5.43;2.70;;;12.00;88.50;;;;;;5083352;28;20134;-72
2023/05/03 10:55:11;;;;;;;6.65;2.55;;;11.90;87.90;;;;;;5093276;28;20532;-71
2023/05/03 10:57:40;;;;;;;3.38;2.38;;;11.70;87.10;;;;;;5078857;28;20584;-71
2023/05/03 11:00:18;;;;;;;3.55;2.25;;;11.60;88.10;;;;;;5078482;28;20055;-71
2023/05/03 11:03:20;;;;;;;3.75;2.50;;;11.60;88.00;;;;;;5080849;28;20158;-70
2023/05/03 11:05:50;;;;;;;3.70;2.20;;;11.60;88.40;;;;;;5083616;28;20044;-70
2023/05/03 11:08:24;;;;;;;4.22;2.20;;;11.80;88.00;;;;;;5085605;28;20905;-69
2023/05/03 11:10:58;;;;;;;4.90;2.45;;;12.00;87.90;;;;;;5076712;28;20040;-70
2023/05/03 11:13:26;;;;;;;4.82;2.55;;;12.10;88.90;;;;;;5082703;28;20091;-70
2023/05/03 11:15:55;;;;;;;6.45;2.97;;;12.20;87.90;;;;;;5069074;28;20045;-70
2023/05/03 11:18:21;;;;;;;5.57;3.25;;;12.20;86.90;;;;;;5087823;28;20411;-70
2023/05/03 11:20:48;;;;;;;5.15;3.00;;;12.30;88.20;;;;;;5058487;28;20051;-70
2023/05/03 11:23:14;;;;;;;5.20;2.70;;;12.50;86.30;;;;;;5083331;28;20051;-70
2023/05/03 11:25:40;;;;;;;4.65;2.72;;;12.60;86.60;;;;;;5062476;28;20048;-69
2023/05/03 11:28:06;;;;;;;6.53;3.08;;;12.80;85.70;;;;;;5074536;28;20398;-70
2023/05/03 11:30:36;;;;;;;3.92;2.40;;;12.90;83.20;;;;;;5076993;28;20070;-70
2023/05/03 11:33:03;;;;;;;6.30;2.90;;;13.00;81.70;;;;;;5075869;28;20418;-70
2023/05/03 11:35:29;;;;;;;4.45;2.67;;;13.00;84.10;;;;;;5074366;28;20409;-70
2023/05/03 11:37:55;;;;;;;4.00;3.03;;;13.20;85.20;;;;;;5068819;28;20032;-70
2023/05/03 11:40:21;;;;;;;5.88;2.90;;;13.40;82.30;;;;;;5089730;28;20050;-70
2023/05/03 11:42:52;;;;;;;4.57;2.30;;;13.40;80.00;;;;;;5089561;28;20212;-70
2023/05/03 11:45:23;;;;;;;4.85;2.58;;;13.50;78.50;;;;;;5065941;28;20075;-70
2023/05/03 11:47:50;;;;;;;3.65;2.78;;;13.50;77.40;;;;;;5091624;28;20043;-71
2023/05/03 11:50:17;;;;;;;4.95;2.95;;;13.50;78.30;;;;;;5099190;27;20077;-70
2023/05/03 11:52:43;;;;;;;7.63;2.88;;;13.50;77.20;;;;;;5083075;28;20071;-70
2023/05/03 11:55:10;;;;;;;6.07;2.88;;;13.30;75.20;;;;;;5081386;28;20036;-71
2023/05/03 11:57:37;;;;;;;4.60;2.47;;;13.50;77.10;;;;;;5093890;28;20483;-70
2023/05/03 12:00:16;;;;;;;8.35;2.67;;;13.60;77.30;;;;;;5092583;28;20114;-71
2023/05/03 12:02:43;;;;;;;4.80;2.92;;;13.80;78.00;;;;;;5087475;28;20094;-71
2023/05/03 12:05:12;;;;;;;5.00;2.90;;;13.90;75.90;;;;;;5092893;28;20059;-72
2023/05/03 12:07:38;;;;;;;6.82;2.80;;;14.10;74.60;;;;;;5067204;28;20042;-71
2023/05/03 12:10:19;;;;;;;5.72;2.72;;;14.10;74.00;;;;;;5080394;28;20079;-71
2023/05/03 12:12:55;;;;;;;8.07;2.47;;;14.00;72.90;;;;;;5087584;28;20091;-71
2023/05/03 12:15:55;;;;;;;4.97;2.83;;;14.00;74.20;;;;;;5076079;28;21138;-71
2023/05/03 12:18:20;;;;;;;3.57;2.80;;;14.10;74.40;;;;;;5065517;28;20055;-70
2023/05/03 12:20:56;;;;;;;4.82;2.40;;;14.20;71.80;;;;;;5084989;28;20036;-71
2023/05/03 12:23:23;;;;;;;5.43;2.45;;;14.30;70.60;;;;;;5087755;28;20058;-71
2023/05/03 12:25:50;;;;;;;4.30;2.30;;;14.20;70.70;;;;;;5066031;28;20109;-71
2023/05/03 12:28:16;;;;;;;4.38;2.35;;;14.20;70.30;;;;;;5070966;28;20062;-71
2023/05/03 12:30:42;;;;;;;6.13;2.20;;;14.20;70.80;;;;;;5054441;28;20059;-71
2023/05/03 12:33:09;;;;;;;16.08;3.58;;;14.10;72.20;;;;;;5047008;28;20052;-71
2023/05/03 12:35:35;;;;;;;11.65;2.60;;;14.20;72.70;;;;;;5030059;28;20067;-70
2023/05/03 12:38:05;;;;;;;6.78;2.42;;;14.10;71.70;;;;;;5063321;28;20464;-70
2023/05/03 12:40:31;;;;;;;;;;;14.10;71.30;;;;;;5068567;28;20499;-70
2023/05/03 12:42:57;;;;;;;5.85;2.17;;;14.20;71.60;;;;;;5059990;28;20019;-70
2023/05/03 12:45:26;;;;;;;4.03;2.47;;;14.20;72.90;;;;;;5046615;28;20044;-70
2023/05/03 12:47:52;;;;;;;4.47;2.88;;;14.40;70.10;;;;;;5067037;28;20048;-70
2023/05/03 12:50:19;;;;;;;8.15;2.67;;;14.50;71.50;;;;;;5059562;28;20036;-71
2023/05/03 12:52:45;;;;;;;4.70;2.72;;;14.50;73.00;;;;;;5045215;28;21152;-70
2023/05/03 12:55:10;;;;;;;3.55;2.50;;;14.50;71.10;;;;;;5067647;28;20135;-70
2023/05/03 12:57:37;;;;;;;5.05;2.72;;;14.40;70.10;;;;;;5049661;28;20037;-69